Airfield :
LOGIN :

Register | Disclaimer

   EN    FR    IT 

 










Legend :    VFR   Marginal VFR   IFR   Intensive IFR   Very Intensive IFR
Visi :
Ceiling :
>= 8 km
>= 3000ft
5 to 8 km
1000 to 3000 ft
1500m to 5 km
500 to 1000 ft
800 to 1500m
200 to 500 ft
< 800m
< 200 ft
Symbols :   Thunderstorms  Fog  Heavy snow  Heavy precipitations  Wind > 20 kt
SIGMETs :     Misc.  Thunderstorms  Icing  Turbulence  Mountain Waves  Volcanic Ashes






- Airport Elevation : 1411 ft
- IATA code : SZG


LOWS - Salzburg

CURRENT METAR :
  • 300420Z 16011KT 130V190 9999 FEW050 BKN060 09/06 Q1016 TEMPO RA

EXPIRED METARs :
  • 300350Z 15015KT 9999 FEW050 BKN070 09/06 Q1016 NOSIG
  • 300320Z AUTO 16013KT 9999 -RA FEW050 OVC070 09/06 Q1016 RERA
  • 300250Z AUTO 15014KT 9999 OVC070 09/06 Q1016
  • 300220Z AUTO 16017KT 120V180 9999 FEW060 BKN070 09/06 Q1016
  • 300150Z AUTO 15012KT 9999 FEW060 SCT070 BKN110 09/05 Q1016

TAF TAF LOWS
Valid from the 30 at 00:00 until the 31 at 00:00 UTC


292315Z 3000/3024 16008KT 9999 FEW040 BKN060 TX14/3014Z TN09/3024Z
TEMPO 3000/3012 -RA
PROB30 3000/3012 RA
TEMPO 3012/3018 25015G25KT SHRA
PROB30 3014/3018 4500 TSRA SCT035CB BKN050



MET'MAP, your aeronautical weather chart ! - Copyright ORBIFLY December 2007 - Disclaimer

ORBIFLY MET'MAP TEAM :

Programming & Development : Alexandra Zaïnal
Original concept : Baudouin d'Aumeries
Technical & hardware support : Manuel Goepfert
Assistance : Marc-Olivier Méhu




SOURCES & CREDITS :

   NOAA